»·PEaware :: N282BC KSZP-KSBP

N282BC :: KSZP-KSBP

FLIGHT INFORMATION

Flight Status: Arrived
Operator: Privately registered:
United States
More flights under this callsign
Pilot: Lev B. (11997)
Aircraft: CESSNA 208 CARAVAN
(C208)
More flights by this aircraft type
Origin: KSZP Santa Paula
United States
Destination: KSBP San Luis Co Regl
United States
More flights between these airports :: More routes between these airports
Route: +RZS V25 WYNNR
File this flight plan on PilotEdge
Remarks:
Altitude:
(Current/Filed)
10,000ft
Speed:
(Current/Filed)
184kts
Departed: 16-Jun-17 07:58 PM
Arrived: 16-Jun-17 08:48 PM
Distance/Time
Traveled:
94nm/0:50
Distance/Time
To Go:
Arrived

Flight Plot

Page will automatically refresh every two minutes.

Flight plan parsing failed; only flown route is shown


Map Options




Map Legend


Flown Route
Filed Route
Departure Airport
Arrival Airport
Navaid (VOR, NDB)
Fix

Horizontal Profiles

Position Reports

Time Latitude Longitude Heading Altitude Ground
Speed
16-Jun-17 19:45 34.348251 -119.060451 318 245ft 0kts
16-Jun-17 19:46 34.348251 -119.060451 318 245ft 0kts
16-Jun-17 19:47 34.348251 -119.060451 318 245ft 0kts
16-Jun-17 19:48 34.348251 -119.060451 318 245ft 0kts
16-Jun-17 19:49 34.348251 -119.060451 318 245ft 0kts
16-Jun-17 19:50 34.348251 -119.060451 318 245ft 0kts
16-Jun-17 19:51 34.348251 -119.060451 318 245ft 0kts
16-Jun-17 19:52 34.348251 -119.060451 318 245ft 0kts
16-Jun-17 19:53 34.348251 -119.060451 318 245ft 0kts
16-Jun-17 19:54 34.348251 -119.060451 318 245ft 0kts
16-Jun-17 19:55 34.348251 -119.060451 318 245ft 0kts
16-Jun-17 19:56 34.348251 -119.060451 318 245ft 0kts
16-Jun-17 19:57 34.348251 -119.060451 318 245ft 0kts
16-Jun-17 19:58 34.348251 -119.060451 318 245ft 0kts
16-Jun-17 19:59 34.347990 -119.060363 53 245ft 20kts
16-Jun-17 20:01 34.342061 -119.069974 232 1128ft 67kts
16-Jun-17 20:02 34.331209 -119.084255 230 2763ft 61kts
16-Jun-17 20:03 34.318886 -119.100662 232 4018ft 102kts
16-Jun-17 20:04 34.306335 -119.146307 270 3987ft 168kts
16-Jun-17 20:05 34.324784 -119.197505 310 3988ft 172kts
16-Jun-17 20:06 34.356301 -119.238962 321 4377ft 162kts
16-Jun-17 20:07 34.395676 -119.217447 50 4867ft 169kts
16-Jun-17 20:08 34.415225 -119.166832 71 5561ft 165kts
16-Jun-17 20:09 34.444452 -119.147001 304 6164ft 156kts
16-Jun-17 20:10 34.448978 -119.195567 221 6773ft 159kts
16-Jun-17 20:11 34.403548 -119.203402 185 6989ft 176kts
16-Jun-17 20:12 34.354671 -119.207357 185 6990ft 178kts
16-Jun-17 20:13 34.305417 -119.211364 185 6990ft 178kts
16-Jun-17 20:14 34.262181 -119.227885 259 7048ft 169kts
16-Jun-17 20:15 34.291268 -119.264869 315 7687ft 149kts
16-Jun-17 20:16 34.314819 -119.308864 298 7892ft 168kts
16-Jun-17 20:17 34.336481 -119.359596 297 7888ft 171kts
16-Jun-17 20:18 34.358264 -119.411007 297 7886ft 172kts
16-Jun-17 20:19 34.380139 -119.462707 297 7884ft 173kts
16-Jun-17 20:20 34.402124 -119.514743 297 7881ft 174kts
16-Jun-17 20:21 34.424144 -119.566955 297 7880ft 174kts
16-Jun-17 20:22 34.446138 -119.619179 297 7880ft 174kts
16-Jun-17 20:23 34.467769 -119.670115 297 7879ft 168kts
16-Jun-17 20:24 34.488866 -119.720184 297 7880ft 166kts
16-Jun-17 20:25 34.510428 -119.769242 317 7875ft 165kts
16-Jun-17 20:26 34.549280 -119.798798 329 7884ft 165kts
16-Jun-17 20:27 34.588629 -119.827380 329 7888ft 165kts
16-Jun-17 20:28 34.628023 -119.855971 328 7891ft 165kts
16-Jun-17 20:29 34.667302 -119.884525 328 7894ft 164kts
16-Jun-17 20:30 34.706403 -119.912982 328 7915ft 163kts
16-Jun-17 20:31 34.745512 -119.941463 328 7920ft 164kts
16-Jun-17 20:32 34.784545 -119.969917 328 7924ft 164kts
16-Jun-17 20:33 34.823689 -119.998487 328 7926ft 164kts
16-Jun-17 20:34 34.854128 -120.039185 308 7928ft 163kts
16-Jun-17 20:35 34.882122 -120.082662 308 7932ft 163kts
16-Jun-17 20:36 34.909775 -120.125871 308 7935ft 162kts
16-Jun-17 20:37 34.937537 -120.169304 309 7938ft 162kts
16-Jun-17 20:38 34.965259 -120.212717 309 7941ft 163kts
16-Jun-17 20:39 34.993174 -120.256471 310 7944ft 164kts
16-Jun-17 20:40 35.021237 -120.300475 309 7928ft 164kts
16-Jun-17 20:41 35.048008 -120.342449 310 6355ft 153kts
16-Jun-17 20:42 35.073158 -120.381923 310 4961ft 136kts
16-Jun-17 20:43 35.098029 -120.421106 310 4936ft 152kts
16-Jun-17 20:44 35.121614 -120.458335 309 4930ft 154kts
16-Jun-17 20:45 35.147934 -120.499952 309 4454ft 155kts
16-Jun-17 20:46 35.173427 -120.539913 306 2938ft 138kts
16-Jun-17 20:47 35.193562 -120.568800 320 2589ft 102kts
16-Jun-17 20:48 35.210796 -120.594237 303 1409ft 93kts
16-Jun-17 20:49 35.225000 -120.619386 302 541ft 84kts
16-Jun-17 20:50 35.235564 -120.637939 304 201ft 49kts
16-Jun-17 20:51 35.237506 -120.639908 4 193ft 0kts
16-Jun-17 20:52 35.237506 -120.639908 4 193ft 0kts
16-Jun-17 20:53 35.238801 -120.641141 347 188ft 0kts
16-Jun-17 20:54 35.238801 -120.641141 347 188ft 0kts
16-Jun-17 20:55 35.238801 -120.641141 347 188ft 0kts
16-Jun-17 20:56 35.238801 -120.641141 347 188ft 0kts
16-Jun-17 20:57 35.238801 -120.641141 347 188ft 0kts

Navigation Log

Ident Type
Flight plan parsing failed, navigation log unavailable